createdAt,value
2018-11-10T00:00:26.590Z,101565.80
2018-11-10T00:02:54.935Z,101565.02
2018-11-10T00:05:23.260Z,101561.81
2018-11-10T00:07:51.659Z,101557.23
2018-11-10T00:10:19.917Z,101555.70
2018-11-10T00:12:48.270Z,101553.40
2018-11-10T00:15:16.596Z,101549.86
2018-11-10T00:17:44.929Z,101548.44
2018-11-10T00:20:13.426Z,101544.16
2018-11-10T00:22:41.600Z,101536.57
2018-11-10T00:25:09.939Z,101533.38
2018-11-10T00:27:38.278Z,101531.35
2018-11-10T00:30:07.187Z,101535.73
2018-11-10T00:32:34.939Z,101531.17
2018-11-10T00:35:03.265Z,101532.48
2018-11-10T00:37:31.596Z,101533.66
2018-11-10T00:40:00.500Z,101533.89
2018-11-10T00:42:28.858Z,101533.80
2018-11-10T00:44:57.182Z,101530.61
2018-11-10T00:47:25.516Z,101531.28
2018-11-10T00:49:53.849Z,101529.80
2018-11-10T00:52:22.241Z,101522.74
2018-11-10T00:54:50.581Z,101519.70
2018-11-10T00:57:18.636Z,101518.72
2018-11-10T00:59:47.566Z,101519.98
2018-11-10T01:02:15.910Z,101529.45
2018-11-10T01:04:43.848Z,101534.78
2018-11-10T01:07:12.770Z,101538.98
2018-11-10T01:09:40.520Z,101535.44
2018-11-10T01:12:09.353Z,101532.82
2018-11-10T01:14:37.712Z,101533.59
2018-11-10T01:17:06.625Z,101531.19
2018-11-10T01:19:34.955Z,101532.91
2018-11-10T01:22:02.714Z,101531.48
2018-11-10T01:24:31.049Z,101527.86
2018-11-10T01:26:59.407Z,101526.21
2018-11-10T01:29:28.330Z,101521.42
2018-11-10T01:31:56.668Z,101518.16
2018-11-10T01:34:25.022Z,101518.47
2018-11-10T01:36:52.786Z,101510.05
2018-11-10T01:39:21.707Z,101508.23
2018-11-10T01:41:50.080Z,101501.73
2018-11-10T01:44:18.414Z,101499.91
2018-11-10T01:46:46.987Z,101500.58
2018-11-10T01:49:14.536Z,101496.30
2018-11-10T01:51:42.872Z,101488.50
2018-11-10T01:54:11.236Z,101489.73
2018-11-10T01:56:40.142Z,101487.32
2018-11-10T01:59:08.495Z,101482.93
2018-11-10T02:01:36.246Z,101484.84
2018-11-10T02:04:04.590Z,101476.73
2018-11-10T02:06:33.521Z,101488.00
2018-11-10T02:09:01.856Z,101494.84
2018-11-10T02:11:30.186Z,101493.61
2018-11-10T02:13:58.524Z,101489.74
2018-11-10T02:16:26.844Z,101486.80
2018-11-10T02:18:55.193Z,101486.34
2018-11-10T02:21:23.544Z,101484.94
2018-11-10T02:23:51.301Z,101482.04
2018-11-10T02:26:20.220Z,101481.19
2018-11-10T02:28:47.984Z,101482.84
2018-11-10T02:31:16.897Z,101472.76
2018-11-10T02:33:44.658Z,101468.88
2018-11-10T02:36:13.580Z,101465.31
2018-11-10T02:38:41.985Z,101460.41
2018-11-10T02:41:10.347Z,101457.11
2018-11-10T02:43:38.703Z,101451.76
2018-11-10T02:46:06.466Z,101448.06
2018-11-10T02:48:35.388Z,101445.36
2018-11-10T02:51:03.712Z,101446.09
2018-11-10T02:53:31.965Z,101442.89
2018-11-10T02:56:00.419Z,101439.16
2018-11-10T02:58:28.176Z,101431.63
2018-11-10T03:00:57.100Z,101435.20
2018-11-10T03:03:24.841Z,101443.21
2018-11-10T03:05:53.181Z,101439.53
2018-11-10T03:08:22.101Z,101437.94
2018-11-10T03:10:50.481Z,101434.16
2018-11-10T03:13:18.189Z,101430.98
2018-11-10T03:15:47.101Z,101434.89
2018-11-10T03:18:15.430Z,101443.47
2018-11-10T03:20:43.761Z,101442.80
2018-11-10T03:23:12.093Z,101441.78
2018-11-10T03:25:40.427Z,101433.11
2018-11-10T03:28:08.188Z,101431.30
2018-11-10T03:30:37.094Z,101429.30
2018-11-10T03:33:04.843Z,101421.09
2018-11-10T03:35:33.776Z,101422.96
2018-11-10T03:38:02.104Z,101422.30
2018-11-10T03:40:30.436Z,101427.91
2018-11-10T03:42:58.194Z,101424.73
2018-11-10T03:45:27.422Z,101425.67
2018-11-10T03:47:55.164Z,101434.27
2018-11-10T03:50:23.514Z,101432.53
2018-11-10T03:52:52.433Z,101428.50
2018-11-10T03:55:20.192Z,101424.19
2018-11-10T03:57:49.126Z,101425.92
2018-11-10T04:00:17.486Z,101427.27
2018-11-10T04:02:45.826Z,101427.23
2018-11-10T04:05:14.165Z,101427.47
2018-11-10T04:07:42.522Z,101422.98
2018-11-10T04:10:10.865Z,101424.71
2018-11-10T04:12:39.195Z,101426.72
2018-11-10T04:15:06.941Z,101427.09
2018-11-10T04:17:35.854Z,101421.95
2018-11-10T04:20:04.196Z,101417.06
2018-11-10T04:22:32.536Z,101413.84
2018-11-10T04:25:00.876Z,101417.92
2018-11-10T04:27:29.204Z,101421.13
2018-11-10T04:29:57.541Z,101420.66
2018-11-10T04:32:25.597Z,101420.94
2018-11-10T04:34:53.940Z,101422.23
2018-11-10T04:37:22.268Z,101419.84
2018-11-10T04:39:50.603Z,101417.14
2018-11-10T04:42:19.556Z,101419.66
2018-11-10T04:44:47.891Z,101420.20
2018-11-10T04:47:16.155Z,101419.19
2018-11-10T04:49:44.594Z,101418.94
2018-11-10T04:52:12.904Z,101417.27
2018-11-10T04:54:41.237Z,101416.27
2018-11-10T04:57:09.571Z,101417.45
2018-11-10T04:59:37.347Z,101415.58
2018-11-10T05:02:06.263Z,101415.36
2018-11-10T05:04:34.010Z,101412.16
2018-11-10T05:07:02.913Z,101411.34
2018-11-10T05:09:31.254Z,101410.23
2018-11-10T05:11:59.603Z,101406.69
2018-11-10T05:14:27.943Z,101398.64
2018-11-10T05:16:56.317Z,101396.28
2018-11-10T05:19:24.648Z,101389.90
2018-11-10T05:21:52.398Z,101394.34
2018-11-10T05:24:20.733Z,101394.05
2018-11-10T05:26:49.645Z,101395.72
2018-11-10T05:29:17.388Z,101398.59
2018-11-10T05:31:45.716Z,101401.39
2018-11-10T05:34:14.045Z,101399.43
2018-11-10T05:36:42.965Z,101390.93
2018-11-10T05:39:10.718Z,101391.64
2018-11-10T05:41:39.640Z,101395.20
2018-11-10T05:44:07.566Z,101393.80
2018-11-10T05:46:36.308Z,101398.86
2018-11-10T05:49:04.441Z,101405.28
2018-11-10T05:51:33.362Z,101408.36
2018-11-10T05:54:01.724Z,101403.02
2018-11-10T05:56:30.275Z,101404.24
2018-11-10T05:58:58.388Z,101402.32
2018-11-10T06:01:26.760Z,101401.80
2018-11-10T06:03:54.526Z,101404.24
2018-11-10T06:06:23.474Z,101402.36
2018-11-10T06:08:51.838Z,101404.01
2018-11-10T06:11:20.189Z,101406.47
2018-11-10T06:13:47.965Z,101409.67
2018-11-10T06:16:16.426Z,101412.17
2018-11-10T06:18:45.275Z,101417.20
2018-11-10T06:21:13.580Z,101421.41
2018-11-10T06:23:41.941Z,101422.21
2018-11-10T06:26:10.365Z,101424.40
2018-11-10T06:28:38.657Z,101425.81
2018-11-10T06:31:06.409Z,101420.23
2018-11-10T06:33:35.331Z,101415.61
2018-11-10T06:36:03.086Z,101417.86
2018-11-10T06:38:31.999Z,101416.97
2018-11-10T06:40:59.784Z,101420.20
2018-11-10T06:43:29.543Z,101423.70
2018-11-10T06:45:57.321Z,101418.45
2018-11-10T06:48:25.687Z,101422.17
2018-11-10T06:50:53.427Z,101424.22
2018-11-10T06:53:21.754Z,101424.02
2018-11-10T06:55:50.098Z,101422.16
2018-11-10T06:58:19.026Z,101421.81
2018-11-10T07:00:46.769Z,101418.08
2018-11-10T07:03:15.788Z,101417.48
2018-11-10T07:05:43.489Z,101419.13
2018-11-10T07:08:12.420Z,101416.86
2018-11-10T07:10:41.052Z,101414.21
2018-11-10T07:13:08.525Z,101414.48
2018-11-10T07:15:37.204Z,101418.14
2018-11-10T07:18:05.225Z,101418.09
2018-11-10T07:20:33.553Z,101422.00
2018-11-10T07:23:02.506Z,101417.99
2018-11-10T07:25:30.269Z,101415.78
2018-11-10T07:27:59.203Z,101416.47
2018-11-10T07:30:27.537Z,101419.91
2018-11-10T07:32:55.869Z,101416.28
2018-11-10T07:35:23.634Z,101414.49
2018-11-10T07:37:52.546Z,101415.11
2018-11-10T07:40:20.395Z,101414.59
2018-11-10T07:42:48.677Z,101414.81
2018-11-10T07:45:17.568Z,101415.69
2018-11-10T07:47:45.914Z,101417.72
2018-11-10T07:50:13.669Z,101414.36
2018-11-10T07:52:42.001Z,101409.28
2018-11-10T07:55:12.321Z,101414.70
2018-11-10T07:57:39.109Z,101412.45
2018-11-10T08:00:08.011Z,101415.41
2018-11-10T08:02:36.360Z,101416.08
2018-11-10T08:05:05.237Z,101411.47
2018-11-10T08:07:33.349Z,101410.95
2018-11-10T08:10:01.135Z,101409.34
2018-11-10T08:12:30.041Z,101410.74
2018-11-10T08:14:58.775Z,101408.42
2018-11-10T08:17:26.795Z,101411.48
2018-11-10T08:19:55.016Z,101403.54
2018-11-10T08:22:23.460Z,101399.68
2018-11-10T08:24:51.230Z,101395.80
2018-11-10T08:27:19.543Z,101396.95
2018-11-10T08:29:48.452Z,101401.36
2018-11-10T08:32:16.794Z,101402.14
2018-11-10T08:34:44.540Z,101399.28
2018-11-10T08:37:13.450Z,101397.62
2018-11-10T08:39:41.789Z,101398.61
2018-11-10T08:42:09.543Z,101396.56
2018-11-10T08:44:38.456Z,101398.94
2018-11-10T08:47:06.211Z,101402.58
2018-11-10T08:49:34.541Z,101401.16
2018-11-10T08:52:03.457Z,101398.96
2018-11-10T08:54:31.224Z,101394.07
2018-11-10T08:57:00.155Z,101399.17
2018-11-10T08:59:27.914Z,101400.58
2018-11-10T09:01:56.829Z,101402.20
2018-11-10T09:04:24.633Z,101399.08
2018-11-10T09:06:53.609Z,101397.55
2018-11-10T09:09:21.946Z,101399.02
2018-11-10T09:11:49.781Z,101401.67
2018-11-10T09:14:18.062Z,101404.25
2018-11-10T09:16:46.980Z,101403.45
2018-11-10T09:19:15.353Z,101405.22
2018-11-10T09:21:43.156Z,101400.78
2018-11-10T09:24:12.045Z,101401.18
2018-11-10T09:26:41.272Z,101400.53
2018-11-10T09:29:09.635Z,101399.95
2018-11-10T09:31:37.972Z,101396.26
2018-11-10T09:34:06.333Z,101397.03
2018-11-10T09:36:34.209Z,101399.01
2018-11-10T09:39:03.004Z,101397.73
2018-11-10T09:41:31.658Z,101399.14
2018-11-10T09:44:00.273Z,101396.31
2018-11-10T09:46:28.597Z,101399.29
2018-11-10T09:48:56.950Z,101396.70
2018-11-10T09:51:24.698Z,101396.42
2018-11-10T09:53:53.036Z,101394.52
2018-11-10T09:56:21.994Z,101388.72
2018-11-10T09:58:49.759Z,101386.72
2018-11-10T10:01:18.833Z,101383.63
2018-11-10T10:03:47.172Z,101381.67
2018-11-10T10:06:15.504Z,101381.34
2018-11-10T10:08:43.951Z,101379.23
2018-11-10T10:11:12.268Z,101372.63
2018-11-10T10:13:40.046Z,101372.01
2018-11-10T10:16:09.010Z,101374.05
2018-11-10T10:18:36.973Z,101374.44
2018-11-10T10:21:05.649Z,101370.31
2018-11-10T10:23:33.983Z,101370.02
2018-11-10T10:26:02.335Z,101372.13
2018-11-10T10:28:30.686Z,101381.68
2018-11-10T10:30:58.429Z,101377.72
2018-11-10T10:33:27.344Z,101380.77
2018-11-10T10:35:55.665Z,101376.59
2018-11-10T10:38:23.425Z,101375.86
2018-11-10T10:40:52.359Z,101375.67
2018-11-10T10:43:20.108Z,101375.41
2018-11-10T10:45:49.034Z,101372.70
2018-11-10T10:48:17.376Z,101368.56
2018-11-10T10:50:45.172Z,101369.31
2018-11-10T10:53:13.510Z,101368.75
2018-11-10T10:55:42.496Z,101366.97
2018-11-10T10:58:10.216Z,101365.36
2018-11-10T11:00:39.129Z,101364.41
2018-11-10T11:03:07.019Z,101372.98
2018-11-10T11:05:35.889Z,101370.81
2018-11-10T11:08:03.975Z,101370.16
2018-11-10T11:10:32.013Z,101367.32
2018-11-10T11:13:00.352Z,101374.55
2018-11-10T11:15:29.426Z,101379.09
2018-11-10T11:17:57.606Z,101374.81
2018-11-10T11:20:25.936Z,101376.16
2018-11-10T11:22:53.692Z,101375.74
2018-11-10T11:25:22.601Z,101371.85
2018-11-10T11:27:50.363Z,101370.06
2018-11-10T11:30:19.331Z,101370.39
2018-11-10T11:32:47.758Z,101374.66
2018-11-10T11:35:15.523Z,101378.20
2018-11-10T11:37:44.460Z,101377.12
2018-11-10T11:40:12.809Z,101375.59
2018-11-10T11:42:41.166Z,101372.12
2018-11-10T11:45:09.494Z,101377.42
2018-11-10T11:47:37.244Z,101376.14
2018-11-10T11:50:05.578Z,101372.79
2018-11-10T11:52:34.535Z,101372.17
2018-11-10T11:55:02.873Z,101378.45
2018-11-10T11:57:31.272Z,101373.48
2018-11-10T11:59:59.579Z,101372.23
2018-11-10T12:02:27.373Z,101371.40
2018-11-10T12:04:55.712Z,101369.45
2018-11-10T12:07:24.637Z,101368.38
2018-11-10T12:09:52.426Z,101367.32
2018-11-10T12:12:21.435Z,101367.86
2018-11-10T12:14:49.718Z,101368.73
2018-11-10T12:17:18.059Z,101364.63
2018-11-10T12:19:46.391Z,101364.78
2018-11-10T12:22:14.239Z,101358.00
2018-11-10T12:24:42.531Z,101357.19
2018-11-10T12:27:11.454Z,101350.47
2018-11-10T12:29:39.228Z,101351.09
2018-11-10T12:32:07.573Z,101346.73
2018-11-10T12:34:35.888Z,101341.73
2018-11-10T12:37:04.259Z,101336.03
2018-11-10T12:39:33.214Z,101334.21
2018-11-10T12:42:01.550Z,101330.92
2018-11-10T12:44:29.894Z,101334.06
2018-11-10T12:46:57.643Z,101334.09
2018-11-10T12:49:26.581Z,101331.71
2018-11-10T12:51:54.327Z,101331.93
2018-11-10T12:54:23.245Z,101332.67
2018-11-10T12:56:51.580Z,101333.91
2018-11-10T12:59:19.705Z,101328.55
2018-11-10T13:01:48.434Z,101332.00
2018-11-10T13:04:16.999Z,101321.03
2018-11-10T13:06:45.380Z,101328.89
2018-11-10T13:09:13.724Z,101325.34
2018-11-10T13:11:41.629Z,101324.22
2018-11-10T13:14:10.411Z,101322.34
2018-11-10T13:16:38.819Z,101324.38
2018-11-10T13:19:06.648Z,101323.39
2018-11-10T13:21:35.891Z,101315.89
2018-11-10T13:24:04.410Z,101320.00
2018-11-10T13:26:32.984Z,101324.39
2018-11-10T13:29:01.467Z,101325.48
2018-11-10T13:31:29.990Z,101327.94
2018-11-10T13:33:59.708Z,101323.67
2018-11-10T13:36:28.364Z,101324.33
2018-11-10T13:38:57.081Z,101325.28
2018-11-10T13:41:25.513Z,101327.99
2018-11-10T13:43:55.569Z,101324.30
2018-11-10T13:46:22.649Z,101322.04
2018-11-10T13:48:51.003Z,101327.55
2018-11-10T13:53:48.093Z,101336.33
2018-11-10T13:56:16.746Z,101337.33
2018-11-10T13:58:45.146Z,101333.70
2018-11-10T14:01:12.905Z,101330.84
2018-11-10T14:03:41.862Z,101328.56
2018-11-10T14:06:10.536Z,101337.45
2018-11-10T14:08:39.029Z,101340.41
2018-11-10T14:11:07.780Z,101340.95
2018-11-10T14:13:36.142Z,101342.55
2018-11-10T14:16:05.129Z,101342.19
2018-11-10T14:18:33.713Z,101342.37
2018-11-10T14:21:03.051Z,101345.03
2018-11-10T14:23:31.205Z,101345.56
2018-11-10T14:25:59.565Z,101343.99
2018-11-10T14:28:28.894Z,101341.38
2018-11-10T14:30:58.143Z,101342.30
2018-11-10T14:33:25.675Z,101343.34
2018-11-10T14:35:54.384Z,101345.91
2018-11-10T14:38:22.809Z,101341.75
2018-11-10T14:40:51.422Z,101341.15
2018-11-10T14:43:20.288Z,101341.95
2018-11-10T14:45:47.885Z,101346.67
2018-11-10T14:48:16.836Z,101343.58
2018-11-10T14:50:44.627Z,101347.71
2018-11-10T14:53:13.061Z,101345.84
2018-11-10T14:55:42.038Z,101346.29
2018-11-10T14:58:10.654Z,101348.43
2018-11-10T15:00:39.148Z,101349.86
2018-11-10T15:03:07.887Z,101342.69
2018-11-10T15:05:36.508Z,101343.54
2018-11-10T15:08:04.929Z,101349.16
2018-11-10T15:10:33.279Z,101348.90
2018-11-10T15:13:01.983Z,101349.35
2018-11-10T15:15:30.375Z,101349.09
2018-11-10T15:17:58.787Z,101342.98
2018-11-10T15:20:27.093Z,101345.89
2018-11-10T15:22:56.641Z,101344.19
2018-11-10T15:25:25.184Z,101348.12
2018-11-10T15:27:53.765Z,101339.97
2018-11-10T15:30:21.521Z,101342.42
2018-11-10T15:32:50.441Z,101335.27
2018-11-10T15:35:18.800Z,101330.48
2018-11-10T15:37:47.664Z,101331.80
2018-11-10T15:40:15.425Z,101335.31
2018-11-10T15:42:44.667Z,101337.86
2018-11-10T15:45:13.638Z,101336.31
2018-11-10T15:47:41.968Z,101333.57
2018-11-10T15:50:10.480Z,101337.52
2018-11-10T15:52:39.164Z,101339.66
2018-11-10T15:55:07.460Z,101341.61
2018-11-10T15:57:35.801Z,101344.97
2018-11-10T16:00:04.574Z,101349.96
2018-11-10T16:02:32.916Z,101358.73
2018-11-10T16:05:00.680Z,101363.95
2018-11-10T16:07:29.604Z,101373.23
2018-11-10T16:09:58.035Z,101372.45
2018-11-10T16:12:26.337Z,101373.56
2018-11-10T16:14:54.092Z,101376.59
2018-11-10T16:17:22.449Z,101378.11
2018-11-10T16:19:51.438Z,101377.55
2018-11-10T16:22:19.197Z,101381.23
2018-11-10T16:24:48.124Z,101382.00
2018-11-10T16:27:15.876Z,101380.30
2018-11-10T16:29:44.233Z,101383.19
2018-11-10T16:32:12.580Z,101382.77
2018-11-10T16:34:41.583Z,101388.41
2018-11-10T16:37:09.887Z,101388.03
2018-11-10T16:39:37.676Z,101386.83
2018-11-10T16:42:06.282Z,101387.45
2018-11-10T16:44:34.687Z,101394.25
2018-11-10T16:47:03.565Z,101392.69
2018-11-10T16:49:31.335Z,101395.83
2018-11-10T16:52:00.251Z,101393.66
2018-11-10T16:54:28.005Z,101393.89
2018-11-10T16:56:56.950Z,101393.03
2018-11-10T16:59:25.285Z,101394.70
2018-11-10T17:01:53.046Z,101390.94
2018-11-10T17:04:21.977Z,101392.49
2018-11-10T17:06:50.356Z,101392.47
2018-11-10T17:09:19.297Z,101389.06
2018-11-10T17:11:47.053Z,101388.75
2018-11-10T17:14:15.975Z,101388.02
2018-11-10T17:16:43.796Z,101391.96
2018-11-10T17:19:12.727Z,101393.66
2018-11-10T17:21:41.181Z,101391.97
2018-11-10T17:24:09.796Z,101395.48
2018-11-10T17:26:37.558Z,101393.17
2018-11-10T17:29:06.519Z,101392.81
2018-11-10T17:31:35.236Z,101393.34
2018-11-10T17:34:03.012Z,101396.05
2018-11-10T17:36:31.941Z,101396.22
2018-11-10T17:38:59.738Z,101397.67
2018-11-10T17:41:28.119Z,101396.36
2018-11-10T17:43:56.487Z,101400.96
2018-11-10T17:46:25.490Z,101394.38
2018-11-10T17:48:53.236Z,101393.28
2018-11-10T17:51:21.598Z,101394.65
2018-11-10T17:53:50.524Z,101400.57
2018-11-10T17:56:18.884Z,101404.36
2018-11-10T17:58:46.728Z,101406.77
2018-11-10T18:01:15.582Z,101407.68
2018-11-10T18:03:43.982Z,101409.61
2018-11-10T18:06:12.320Z,101410.61
2018-11-10T18:08:40.110Z,101407.11
2018-11-10T18:11:08.447Z,101406.46
2018-11-10T18:13:36.782Z,101401.09
2018-11-10T18:16:05.786Z,101403.16
2018-11-10T18:18:34.124Z,101400.32
2018-11-10T18:21:02.461Z,101397.48
2018-11-10T18:23:30.822Z,101395.08
2018-11-10T18:25:59.258Z,101394.13
2018-11-10T18:28:28.189Z,101398.21
2018-11-10T18:30:56.716Z,101402.33
2018-11-10T18:33:25.601Z,101401.31
2018-11-10T18:35:54.572Z,101403.70
2018-11-10T18:38:22.423Z,101404.49
2018-11-10T18:40:51.404Z,101405.68
2018-11-10T18:43:19.109Z,101410.09
2018-11-10T18:45:48.140Z,101413.35
2018-11-10T18:48:16.480Z,101415.85
2018-11-10T18:50:46.631Z,101417.81
2018-11-10T18:53:14.967Z,101414.80
2018-11-10T18:55:43.328Z,101418.59
2018-11-10T18:58:11.950Z,101421.40
2018-11-10T19:00:40.261Z,101415.45
2018-11-10T19:03:09.154Z,101420.08
2018-11-10T19:05:37.509Z,101425.23
2018-11-10T19:08:05.276Z,101424.73
2018-11-10T19:10:34.202Z,101428.48
2018-11-10T19:13:02.753Z,101433.02
2018-11-10T19:15:31.185Z,101432.14
2018-11-10T19:17:59.262Z,101429.95
2018-11-10T19:20:29.488Z,101426.32
2018-11-10T19:22:58.818Z,101420.98
2018-11-10T19:25:27.272Z,101424.47
2018-11-10T19:27:55.876Z,101422.60
2018-11-10T19:30:24.841Z,101424.25
2018-11-10T19:32:53.135Z,101425.52
2018-11-10T19:35:21.451Z,101425.62
2018-11-10T19:37:49.269Z,101426.00
2018-11-10T19:40:18.212Z,101427.68
2018-11-10T19:42:46.042Z,101430.07
2018-11-10T19:45:14.986Z,101427.84
2018-11-10T19:47:42.731Z,101428.23
2018-11-10T19:50:11.134Z,101426.87
2018-11-10T19:52:40.047Z,101425.41
2018-11-10T19:55:08.395Z,101426.95
2018-11-10T19:57:36.745Z,101423.21
2018-11-10T20:00:05.076Z,101425.76
2018-11-10T20:02:33.426Z,101429.65
2018-11-10T20:05:01.291Z,101427.56
2018-11-10T20:07:30.013Z,101430.36
2018-11-10T20:09:58.940Z,101434.88
2018-11-10T20:12:26.782Z,101432.80
2018-11-10T20:14:55.829Z,101434.05
2018-11-10T20:17:24.160Z,101433.97
2018-11-10T20:19:51.919Z,101430.83
2018-11-10T20:22:21.124Z,101433.66
2018-11-10T20:24:49.338Z,101430.06
2018-11-10T20:27:17.722Z,101430.44
2018-11-10T20:29:46.302Z,101437.81
2018-11-10T20:32:14.085Z,101430.63
2018-11-10T20:34:43.212Z,101434.64
2018-11-10T20:37:11.551Z,101435.62
2018-11-10T20:39:39.896Z,101441.52
2018-11-10T20:42:08.296Z,101443.62
2018-11-10T20:44:36.729Z,101445.36
2018-11-10T20:47:04.505Z,101440.47
2018-11-10T20:49:33.783Z,101445.61
2018-11-10T20:52:02.426Z,101441.53
2018-11-10T20:54:32.287Z,101444.22
2018-11-10T20:57:00.139Z,101444.88
2018-11-10T20:59:28.527Z,101446.50
2018-11-10T21:01:56.877Z,101442.73
2018-11-10T21:04:25.235Z,101447.68
2018-11-10T21:06:53.371Z,101449.96
2018-11-10T21:09:21.885Z,101450.69
2018-11-10T21:11:50.627Z,101450.35
2018-11-10T21:14:18.382Z,101450.58
2018-11-10T21:16:46.718Z,101449.66
2018-11-10T21:19:15.665Z,101449.86
2018-11-10T21:21:44.198Z,101451.53
2018-11-10T21:24:11.948Z,101447.63
2018-11-10T21:26:40.914Z,101447.63
2018-11-10T21:29:10.408Z,101445.59
2018-11-10T21:31:38.664Z,101445.92
2018-11-10T21:34:07.141Z,101443.69
2018-11-10T21:36:35.490Z,101446.15
2018-11-10T21:39:03.861Z,101441.05
2018-11-10T21:41:32.292Z,101441.53
2018-11-10T21:44:00.776Z,101439.63
2018-11-10T21:46:29.341Z,101436.76
2018-11-10T21:48:57.793Z,101436.39
2018-11-10T21:51:26.244Z,101434.14
2018-11-10T21:53:54.640Z,101431.56
2018-11-10T21:56:23.198Z,101428.60
2018-11-10T21:58:51.760Z,101433.27
2018-11-10T22:01:20.098Z,101432.00
2018-11-10T22:03:47.910Z,101430.59
2018-11-10T22:06:16.997Z,101434.64
2018-11-10T22:08:45.412Z,101432.61
2018-11-10T22:11:13.702Z,101430.31
2018-11-10T22:13:42.227Z,101427.77
2018-11-10T22:16:10.620Z,101424.98
2018-11-10T22:18:39.009Z,101425.65
2018-11-10T22:21:07.652Z,101425.36
2018-11-10T22:23:36.732Z,101429.36
2018-11-10T22:26:04.970Z,101425.44
2018-11-10T22:28:32.738Z,101427.96
2018-11-10T22:31:01.794Z,101428.05
2018-11-10T22:33:31.993Z,101425.54
2018-11-10T22:36:03.202Z,101428.27
2018-11-10T22:38:32.373Z,101429.45
2018-11-10T22:41:00.483Z,101433.09
2018-11-10T22:43:29.573Z,101434.77
2018-11-10T22:45:57.910Z,101434.76
2018-11-10T22:48:26.541Z,101432.06
2018-11-10T22:50:54.683Z,101428.20
2018-11-10T22:53:23.019Z,101425.37
2018-11-10T22:55:50.929Z,101428.02
2018-11-10T22:58:19.256Z,101428.30
2018-11-10T23:00:48.309Z,101438.09
2018-11-10T23:03:16.643Z,101431.73
2018-11-10T23:05:45.022Z,101435.22
2018-11-10T23:08:12.936Z,101435.02
2018-11-10T23:10:41.788Z,101434.32
2018-11-10T23:13:10.285Z,101432.47
2018-11-10T23:15:38.749Z,101431.17
2018-11-10T23:18:07.406Z,101431.10
2018-11-10T23:20:35.918Z,101428.97
2018-11-10T23:23:04.355Z,101420.11
2018-11-10T23:25:32.689Z,101418.95
2018-11-10T23:28:00.469Z,101416.49
2018-11-10T23:30:29.623Z,101415.62
2018-11-10T23:32:59.253Z,101419.59
2018-11-10T23:35:27.631Z,101421.41
2018-11-10T23:37:55.932Z,101419.55
2018-11-10T23:40:23.677Z,101423.08
2018-11-10T23:42:52.594Z,101420.95
2018-11-10T23:45:20.349Z,101425.68
2018-11-10T23:47:48.683Z,101425.63
2018-11-10T23:50:17.014Z,101423.63
2018-11-10T23:52:45.368Z,101426.17
2018-11-10T23:55:14.269Z,101429.28
2018-11-10T23:57:42.610Z,101427.41
